sensor_id;sensor_type;location;lat;lon;timestamp;P1;durP1;ratioP1;P2;durP2;ratioP2
64293;SDS011;50636;45.596;5.258;2023-02-15T00:01:11;26.77;;;17.13;;
64293;SDS011;50636;45.596;5.258;2023-02-15T00:03:37;22.88;;;17.00;;
64293;SDS011;50636;45.596;5.258;2023-02-15T00:06:37;23.80;;;17.05;;
64293;SDS011;50636;45.596;5.258;2023-02-15T00:16:55;22.55;;;17.05;;
64293;SDS011;50636;45.596;5.258;2023-02-15T00:19:42;25.50;;;16.95;;
64293;SDS011;50636;45.596;5.258;2023-02-15T00:22:10;35.65;;;18.20;;
64293;SDS011;50636;45.596;5.258;2023-02-15T00:24:36;25.23;;;16.45;;
64293;SDS011;50636;45.596;5.258;2023-02-15T00:27:08;24.10;;;17.80;;
64293;SDS011;50636;45.596;5.258;2023-02-15T00:29:46;22.45;;;15.48;;
64293;SDS011;50636;45.596;5.258;2023-02-15T00:32:12;26.40;;;16.17;;
64293;SDS011;50636;45.596;5.258;2023-02-15T00:34:46;24.15;;;17.65;;
64293;SDS011;50636;45.596;5.258;2023-02-15T00:37:20;27.08;;;17.17;;
64293;SDS011;50636;45.596;5.258;2023-02-15T00:39:50;23.85;;;17.92;;
64293;SDS011;50636;45.596;5.258;2023-02-15T00:42:23;26.05;;;17.85;;
64293;SDS011;50636;45.596;5.258;2023-02-15T00:44:49;22.35;;;16.50;;
64293;SDS011;50636;45.596;5.258;2023-02-15T00:47:15;23.65;;;16.45;;
64293;SDS011;50636;45.596;5.258;2023-02-15T00:49:52;23.17;;;17.67;;
64293;SDS011;50636;45.596;5.258;2023-02-15T00:52:29;32.08;;;19.02;;
64293;SDS011;50636;45.596;5.258;2023-02-15T00:55:00;26.48;;;16.48;;
64293;SDS011;50636;45.596;5.258;2023-02-15T00:57:29;29.95;;;18.85;;
64293;SDS011;50636;45.596;5.258;2023-02-15T00:59:59;32.72;;;18.20;;
64293;SDS011;50636;45.596;5.258;2023-02-15T01:02:31;22.98;;;18.75;;
64293;SDS011;50636;45.596;5.258;2023-02-15T01:05:02;24.30;;;18.35;;
64293;SDS011;50636;45.596;5.258;2023-02-15T01:07:40;32.13;;;18.55;;
64293;SDS011;50636;45.596;5.258;2023-02-15T01:10:19;26.80;;;18.20;;
64293;SDS011;50636;45.596;5.258;2023-02-15T01:13:00;23.25;;;16.67;;
64293;SDS011;50636;45.596;5.258;2023-02-15T01:18:25;38.58;;;30.30;;
64293;SDS011;50636;45.596;5.258;2023-02-15T01:21:31;48.75;;;40.35;;
64293;SDS011;50636;45.596;5.258;2023-02-15T01:24:05;27.25;;;19.08;;
64293;SDS011;50636;45.596;5.258;2023-02-15T01:29:49;24.95;;;19.10;;
64293;SDS011;50636;45.596;5.258;2023-02-15T01:32:30;28.02;;;18.63;;
64293;SDS011;50636;45.596;5.258;2023-02-15T01:34:59;30.65;;;18.02;;
64293;SDS011;50636;45.596;5.258;2023-02-15T01:37:39;29.83;;;17.83;;
64293;SDS011;50636;45.596;5.258;2023-02-15T01:40:19;23.35;;;18.27;;
64293;SDS011;50636;45.596;5.258;2023-02-15T01:43:02;29.65;;;19.67;;
64293;SDS011;50636;45.596;5.258;2023-02-15T01:45:37;26.75;;;19.30;;
64293;SDS011;50636;45.596;5.258;2023-02-15T01:50:40;24.20;;;18.67;;
64293;SDS011;50636;45.596;5.258;2023-02-15T01:53:31;34.85;;;20.80;;
64293;SDS011;50636;45.596;5.258;2023-02-15T01:56:37;25.80;;;18.85;;
64293;SDS011;50636;45.596;5.258;2023-02-15T01:59:11;25.52;;;18.45;;
64293;SDS011;50636;45.596;5.258;2023-02-15T02:02:17;30.98;;;18.40;;
64293;SDS011;50636;45.596;5.258;2023-02-15T02:04:49;27.13;;;20.17;;
64293;SDS011;50636;45.596;5.258;2023-02-15T02:07:19;28.08;;;18.63;;
64293;SDS011;50636;45.596;5.258;2023-02-15T02:13:13;31.65;;;20.23;;
64293;SDS011;50636;45.596;5.258;2023-02-15T02:31:49;31.05;;;20.48;;
64293;SDS011;50636;45.596;5.258;2023-02-15T02:44:29;32.60;;;20.95;;
64293;SDS011;50636;45.596;5.258;2023-02-15T02:50:38;35.17;;;21.88;;
64293;SDS011;50636;45.596;5.258;2023-02-15T02:53:23;38.65;;;22.92;;
64293;SDS011;50636;45.596;5.258;2023-02-15T02:59:17;32.85;;;20.85;;
64293;SDS011;50636;45.596;5.258;2023-02-15T03:02:26;28.65;;;20.65;;
64293;SDS011;50636;45.596;5.258;2023-02-15T03:05:18;32.97;;;21.88;;
64293;SDS011;50636;45.596;5.258;2023-02-15T03:08:10;32.70;;;20.17;;
64293;SDS011;50636;45.596;5.258;2023-02-15T03:10:48;27.58;;;19.70;;
64293;SDS011;50636;45.596;5.258;2023-02-15T03:13:37;30.80;;;19.77;;
64293;SDS011;50636;45.596;5.258;2023-02-15T03:16:07;26.90;;;19.35;;
64293;SDS011;50636;45.596;5.258;2023-02-15T03:19:17;27.63;;;20.30;;
64293;SDS011;50636;45.596;5.258;2023-02-15T03:22:13;29.67;;;21.35;;
64293;SDS011;50636;45.596;5.258;2023-02-15T03:27:58;29.58;;;21.85;;
64293;SDS011;50636;45.596;5.258;2023-02-15T03:30:53;32.17;;;21.90;;
64293;SDS011;50636;45.596;5.258;2023-02-15T03:36:48;29.73;;;21.58;;
64293;SDS011;50636;45.596;5.258;2023-02-15T03:46:31;31.42;;;21.40;;
64293;SDS011;50636;45.596;5.258;2023-02-15T03:52:23;32.13;;;21.20;;
64293;SDS011;50636;45.596;5.258;2023-02-15T03:55:00;31.25;;;21.60;;
64293;SDS011;50636;45.596;5.258;2023-02-15T03:57:27;38.55;;;27.27;;
64293;SDS011;50636;45.596;5.258;2023-02-15T04:06:20;35.28;;;22.85;;
64293;SDS011;50636;45.596;5.258;2023-02-15T04:14:46;37.50;;;24.17;;
64293;SDS011;50636;45.596;5.258;2023-02-15T04:17:41;32.80;;;21.55;;
64293;SDS011;50636;45.596;5.258;2023-02-15T04:20:20;34.00;;;25.50;;
64293;SDS011;50636;45.596;5.258;2023-02-15T04:26:06;29.23;;;22.33;;
64293;SDS011;50636;45.596;5.258;2023-02-15T04:28:47;29.75;;;22.45;;
64293;SDS011;50636;45.596;5.258;2023-02-15T04:31:14;35.70;;;24.80;;
64293;SDS011;50636;45.596;5.258;2023-02-15T04:33:40;30.85;;;22.40;;
64293;SDS011;50636;45.596;5.258;2023-02-15T04:39:14;36.65;;;24.45;;
64293;SDS011;50636;45.596;5.258;2023-02-15T04:42:19;31.30;;;20.35;;
64293;SDS011;50636;45.596;5.258;2023-02-15T04:44:58;34.30;;;22.88;;
64293;SDS011;50636;45.596;5.258;2023-02-15T04:47:40;30.75;;;19.92;;
64293;SDS011;50636;45.596;5.258;2023-02-15T04:50:16;29.70;;;17.95;;
64293;SDS011;50636;45.596;5.258;2023-02-15T04:52:55;28.23;;;18.50;;
64293;SDS011;50636;45.596;5.258;2023-02-15T04:55:23;35.35;;;23.70;;
64293;SDS011;50636;45.596;5.258;2023-02-15T04:57:48;28.73;;;19.60;;
64293;SDS011;50636;45.596;5.258;2023-02-15T05:00:24;28.52;;;20.63;;
64293;SDS011;50636;45.596;5.258;2023-02-15T05:03:01;25.65;;;19.63;;
64293;SDS011;50636;45.596;5.258;2023-02-15T05:05:42;31.50;;;23.35;;
64293;SDS011;50636;45.596;5.258;2023-02-15T05:08:21;29.15;;;22.17;;
64293;SDS011;50636;45.596;5.258;2023-02-15T05:10:55;35.85;;;21.63;;
64293;SDS011;50636;45.596;5.258;2023-02-15T05:13:22;40.55;;;21.58;;
64293;SDS011;50636;45.596;5.258;2023-02-15T05:15:50;31.10;;;21.25;;
64293;SDS011;50636;45.596;5.258;2023-02-15T05:18:18;32.60;;;22.42;;
64293;SDS011;50636;45.596;5.258;2023-02-15T05:20:47;40.92;;;23.10;;
64293;SDS011;50636;45.596;5.258;2023-02-15T05:23:15;41.03;;;22.73;;
64293;SDS011;50636;45.596;5.258;2023-02-15T05:25:46;42.05;;;22.90;;
64293;SDS011;50636;45.596;5.258;2023-02-15T05:28:41;34.45;;;21.73;;
64293;SDS011;50636;45.596;5.258;2023-02-15T05:31:11;43.15;;;26.45;;
64293;SDS011;50636;45.596;5.258;2023-02-15T05:33:47;48.45;;;23.10;;
64293;SDS011;50636;45.596;5.258;2023-02-15T05:36:15;40.53;;;22.80;;
64293;SDS011;50636;45.596;5.258;2023-02-15T05:38:43;31.30;;;21.20;;
64293;SDS011;50636;45.596;5.258;2023-02-15T05:41:10;33.28;;;22.00;;
64293;SDS011;50636;45.596;5.258;2023-02-15T05:43:41;32.00;;;25.02;;
64293;SDS011;50636;45.596;5.258;2023-02-15T05:46:08;32.13;;;24.08;;
64293;SDS011;50636;45.596;5.258;2023-02-15T05:48:35;32.53;;;26.13;;
64293;SDS011;50636;45.596;5.258;2023-02-15T05:51:05;41.17;;;26.80;;
64293;SDS011;50636;45.596;5.258;2023-02-15T05:53:42;42.55;;;25.70;;
64293;SDS011;50636;45.596;5.258;2023-02-15T05:56:10;32.42;;;25.75;;
64293;SDS011;50636;45.596;5.258;2023-02-15T05:58:39;30.83;;;25.10;;
64293;SDS011;50636;45.596;5.258;2023-02-15T06:01:11;40.65;;;26.38;;
64293;SDS011;50636;45.596;5.258;2023-02-15T06:03:40;32.28;;;22.13;;
64293;SDS011;50636;45.596;5.258;2023-02-15T06:06:07;35.03;;;22.27;;
64293;SDS011;50636;45.596;5.258;2023-02-15T06:08:35;30.80;;;23.58;;
64293;SDS011;50636;45.596;5.258;2023-02-15T06:11:03;40.38;;;21.58;;
64293;SDS011;50636;45.596;5.258;2023-02-15T06:13:31;31.38;;;23.58;;
64293;SDS011;50636;45.596;5.258;2023-02-15T06:15:59;34.22;;;26.33;;
64293;SDS011;50636;45.596;5.258;2023-02-15T06:18:25;40.95;;;29.13;;
64293;SDS011;50636;45.596;5.258;2023-02-15T06:20:53;37.13;;;30.13;;
64293;SDS011;50636;45.596;5.258;2023-02-15T06:23:20;38.05;;;27.00;;
64293;SDS011;50636;45.596;5.258;2023-02-15T06:25:46;32.70;;;24.92;;
64293;SDS011;50636;45.596;5.258;2023-02-15T06:28:13;35.58;;;26.48;;
64293;SDS011;50636;45.596;5.258;2023-02-15T06:30:40;36.15;;;25.30;;
64293;SDS011;50636;45.596;5.258;2023-02-15T06:33:07;40.15;;;26.08;;
64293;SDS011;50636;45.596;5.258;2023-02-15T06:35:34;39.17;;;25.17;;
64293;SDS011;50636;45.596;5.258;2023-02-15T06:38:01;32.63;;;23.27;;
64293;SDS011;50636;45.596;5.258;2023-02-15T06:40:28;39.85;;;25.55;;
64293;SDS011;50636;45.596;5.258;2023-02-15T06:42:55;35.00;;;24.25;;
64293;SDS011;50636;45.596;5.258;2023-02-15T06:45:22;34.40;;;25.75;;
64293;SDS011;50636;45.596;5.258;2023-02-15T06:47:49;42.42;;;27.60;;
64293;SDS011;50636;45.596;5.258;2023-02-15T06:50:16;37.60;;;25.92;;
64293;SDS011;50636;45.596;5.258;2023-02-15T06:52:43;34.42;;;26.80;;
64293;SDS011;50636;45.596;5.258;2023-02-15T06:55:10;39.83;;;24.73;;
64293;SDS011;50636;45.596;5.258;2023-02-15T06:57:37;31.10;;;22.15;;
64293;SDS011;50636;45.596;5.258;2023-02-15T07:00:05;35.92;;;24.58;;
64293;SDS011;50636;45.596;5.258;2023-02-15T07:02:33;36.03;;;25.83;;
64293;SDS011;50636;45.596;5.258;2023-02-15T07:05:00;34.78;;;24.02;;
64293;SDS011;50636;45.596;5.258;2023-02-15T07:07:27;34.97;;;25.23;;
64293;SDS011;50636;45.596;5.258;2023-02-15T07:09:53;37.00;;;22.73;;
64293;SDS011;50636;45.596;5.258;2023-02-15T07:12:20;31.88;;;23.58;;
64293;SDS011;50636;45.596;5.258;2023-02-15T07:15:05;33.80;;;22.48;;
64293;SDS011;50636;45.596;5.258;2023-02-15T07:17:34;33.67;;;25.63;;
64293;SDS011;50636;45.596;5.258;2023-02-15T07:20:03;37.80;;;25.58;;
64293;SDS011;50636;45.596;5.258;2023-02-15T07:22:42;30.58;;;25.30;;
64293;SDS011;50636;45.596;5.258;2023-02-15T07:25:09;37.50;;;24.50;;
64293;SDS011;50636;45.596;5.258;2023-02-15T07:27:37;40.08;;;23.27;;
64293;SDS011;50636;45.596;5.258;2023-02-15T07:30:10;36.95;;;22.52;;
64293;SDS011;50636;45.596;5.258;2023-02-15T07:32:40;33.70;;;25.02;;
64293;SDS011;50636;45.596;5.258;2023-02-15T07:35:37;34.40;;;25.52;;
64293;SDS011;50636;45.596;5.258;2023-02-15T07:38:03;40.05;;;27.45;;
64293;SDS011;50636;45.596;5.258;2023-02-15T07:40:30;39.75;;;25.35;;
64293;SDS011;50636;45.596;5.258;2023-02-15T07:42:58;31.70;;;20.77;;
64293;SDS011;50636;45.596;5.258;2023-02-15T07:45:38;35.55;;;22.65;;
64293;SDS011;50636;45.596;5.258;2023-02-15T07:48:20;34.95;;;24.23;;
64293;SDS011;50636;45.596;5.258;2023-02-15T07:50:47;32.60;;;24.30;;
64293;SDS011;50636;45.596;5.258;2023-02-15T07:53:15;41.20;;;25.40;;
64293;SDS011;50636;45.596;5.258;2023-02-15T07:55:42;35.28;;;25.35;;
64293;SDS011;50636;45.596;5.258;2023-02-15T07:58:10;32.22;;;25.70;;
64293;SDS011;50636;45.596;5.258;2023-02-15T08:00:43;36.10;;;26.17;;
64293;SDS011;50636;45.596;5.258;2023-02-15T08:03:33;45.03;;;24.52;;
64293;SDS011;50636;45.596;5.258;2023-02-15T08:06:01;65.00;;;25.63;;
64293;SDS011;50636;45.596;5.258;2023-02-15T08:08:28;53.53;;;26.15;;
64293;SDS011;50636;45.596;5.258;2023-02-15T08:11:03;52.38;;;23.13;;
64293;SDS011;50636;45.596;5.258;2023-02-15T08:21:38;76.47;;;25.98;;
64293;SDS011;50636;45.596;5.258;2023-02-15T08:24:09;91.25;;;26.80;;
64293;SDS011;50636;45.596;5.258;2023-02-15T08:26:38;88.97;;;26.40;;
64293;SDS011;50636;45.596;5.258;2023-02-15T08:29:08;59.90;;;25.52;;
64293;SDS011;50636;45.596;5.258;2023-02-15T08:31:36;67.03;;;24.75;;
64293;SDS011;50636;45.596;5.258;2023-02-15T08:34:03;52.13;;;25.77;;
64293;SDS011;50636;45.596;5.258;2023-02-15T08:36:31;39.15;;;26.27;;
64293;SDS011;50636;45.596;5.258;2023-02-15T08:38:59;38.03;;;25.70;;
64293;SDS011;50636;45.596;5.258;2023-02-15T08:41:27;35.50;;;25.42;;
64293;SDS011;50636;45.596;5.258;2023-02-15T08:44:24;35.22;;;25.15;;
64293;SDS011;50636;45.596;5.258;2023-02-15T08:46:50;35.22;;;25.63;;
64293;SDS011;50636;45.596;5.258;2023-02-15T08:49:20;35.90;;;25.50;;
64293;SDS011;50636;45.596;5.258;2023-02-15T08:51:48;29.75;;;23.92;;
64293;SDS011;50636;45.596;5.258;2023-02-15T08:54:17;39.05;;;25.70;;
64293;SDS011;50636;45.596;5.258;2023-02-15T08:56:46;30.63;;;24.58;;
64293;SDS011;50636;45.596;5.258;2023-02-15T08:59:16;36.00;;;23.88;;
64293;SDS011;50636;45.596;5.258;2023-02-15T09:01:46;33.88;;;22.23;;
64293;SDS011;50636;45.596;5.258;2023-02-15T09:04:15;27.65;;;21.58;;
64293;SDS011;50636;45.596;5.258;2023-02-15T09:06:44;30.80;;;21.52;;
64293;SDS011;50636;45.596;5.258;2023-02-15T09:09:17;39.22;;;23.02;;
64293;SDS011;50636;45.596;5.258;2023-02-15T09:11:46;24.50;;;20.83;;
64293;SDS011;50636;45.596;5.258;2023-02-15T09:14:17;27.48;;;20.33;;
64293;SDS011;50636;45.596;5.258;2023-02-15T09:16:57;29.92;;;20.73;;
64293;SDS011;50636;45.596;5.258;2023-02-15T09:19:39;36.67;;;23.08;;
64293;SDS011;50636;45.596;5.258;2023-02-15T09:22:06;44.13;;;21.67;;
64293;SDS011;50636;45.596;5.258;2023-02-15T09:24:32;48.95;;;27.30;;
64293;SDS011;50636;45.596;5.258;2023-02-15T09:27:00;32.40;;;21.55;;
64293;SDS011;50636;45.596;5.258;2023-02-15T09:29:27;24.30;;;19.05;;
64293;SDS011;50636;45.596;5.258;2023-02-15T09:31:55;22.13;;;18.33;;
64293;SDS011;50636;45.596;5.258;2023-02-15T09:34:22;34.00;;;19.45;;
64293;SDS011;50636;45.596;5.258;2023-02-15T09:36:50;29.23;;;18.60;;
64293;SDS011;50636;45.596;5.258;2023-02-15T09:39:18;25.63;;;16.95;;
64293;SDS011;50636;45.596;5.258;2023-02-15T09:50:07;27.45;;;17.55;;
64293;SDS011;50636;45.596;5.258;2023-02-15T09:56:52;24.65;;;16.38;;
64293;SDS011;50636;45.596;5.258;2023-02-15T10:02:24;28.80;;;18.88;;
64293;SDS011;50636;45.596;5.258;2023-02-15T10:17:51;30.80;;;21.05;;
64293;SDS011;50636;45.596;5.258;2023-02-15T10:21:04;31.27;;;13.43;;
64293;SDS011;50636;45.596;5.258;2023-02-15T10:26:19;24.50;;;16.85;;
64293;SDS011;50636;45.596;5.258;2023-02-15T10:28:49;28.25;;;16.50;;
64293;SDS011;50636;45.596;5.258;2023-02-15T10:31:50;25.42;;;14.18;;
64293;SDS011;50636;45.596;5.258;2023-02-15T10:49:59;14.77;;;10.73;;
64293;SDS011;50636;45.596;5.258;2023-02-15T10:59:25;13.90;;;10.25;;
64293;SDS011;50636;45.596;5.258;2023-02-15T11:09:24;17.52;;;7.07;;
64293;SDS011;50636;45.596;5.258;2023-02-15T11:11:55;12.00;;;6.32;;
64293;SDS011;50636;45.596;5.258;2023-02-15T11:14:58;14.77;;;5.55;;
64293;SDS011;50636;45.596;5.258;2023-02-15T11:17:56;10.48;;;6.55;;
64293;SDS011;50636;45.596;5.258;2023-02-15T11:21:04;9.55;;;5.60;;
64293;SDS011;50636;45.596;5.258;2023-02-15T11:24:00;10.13;;;6.10;;
64293;SDS011;50636;45.596;5.258;2023-02-15T11:26:28;23.05;;;7.68;;
64293;SDS011;50636;45.596;5.258;2023-02-15T11:29:41;6.20;;;5.60;;
64293;SDS011;50636;45.596;5.258;2023-02-15T11:32:52;10.10;;;5.57;;
64293;SDS011;50636;45.596;5.258;2023-02-15T11:38:33;13.55;;;6.30;;
64293;SDS011;50636;45.596;5.258;2023-02-15T11:41:03;18.73;;;7.55;;
64293;SDS011;50636;45.596;5.258;2023-02-15T11:43:43;18.70;;;10.82;;
64293;SDS011;50636;45.596;5.258;2023-02-15T11:46:20;17.65;;;9.73;;
64293;SDS011;50636;45.596;5.258;2023-02-15T11:48:48;15.30;;;11.52;;
64293;SDS011;50636;45.596;5.258;2023-02-15T11:51:19;11.15;;;7.50;;
64293;SDS011;50636;45.596;5.258;2023-02-15T11:53:50;17.48;;;8.52;;
64293;SDS011;50636;45.596;5.258;2023-02-15T11:56:21;10.63;;;7.25;;
64293;SDS011;50636;45.596;5.258;2023-02-15T11:58:55;18.95;;;9.07;;
64293;SDS011;50636;45.596;5.258;2023-02-15T12:01:27;10.48;;;7.63;;
64293;SDS011;50636;45.596;5.258;2023-02-15T12:04:23;12.80;;;9.38;;
64293;SDS011;50636;45.596;5.258;2023-02-15T12:07:20;11.98;;;9.15;;
64293;SDS011;50636;45.596;5.258;2023-02-15T12:10:03;16.75;;;9.52;;
64293;SDS011;50636;45.596;5.258;2023-02-15T12:12:38;12.57;;;9.02;;
64293;SDS011;50636;45.596;5.258;2023-02-15T12:15:05;11.32;;;8.38;;
64293;SDS011;50636;45.596;5.258;2023-02-15T12:17:40;13.60;;;9.25;;
64293;SDS011;50636;45.596;5.258;2023-02-15T12:22:53;22.30;;;9.52;;
64293;SDS011;50636;45.596;5.258;2023-02-15T12:25:36;15.55;;;8.07;;
64293;SDS011;50636;45.596;5.258;2023-02-15T12:28:29;13.77;;;7.50;;
64293;SDS011;50636;45.596;5.258;2023-02-15T12:31:07;11.93;;;8.13;;
64293;SDS011;50636;45.596;5.258;2023-02-15T12:34:11;14.15;;;8.20;;
64293;SDS011;50636;45.596;5.258;2023-02-15T12:37:07;29.60;;;8.90;;
64293;SDS011;50636;45.596;5.258;2023-02-15T12:39:51;60.97;;;10.40;;
64293;SDS011;50636;45.596;5.258;2023-02-15T12:42:24;28.25;;;9.93;;
64293;SDS011;50636;45.596;5.258;2023-02-15T12:45:02;16.95;;;7.70;;
64293;SDS011;50636;45.596;5.258;2023-02-15T12:50:34;50.90;;;15.27;;
64293;SDS011;50636;45.596;5.258;2023-02-15T12:53:12;8.75;;;5.90;;
64293;SDS011;50636;45.596;5.258;2023-02-15T12:55:55;7.22;;;5.13;;
64293;SDS011;50636;45.596;5.258;2023-02-15T12:58:29;10.48;;;5.28;;
64293;SDS011;50636;45.596;5.258;2023-02-15T13:03:30;12.20;;;5.80;;
64293;SDS011;50636;45.596;5.258;2023-02-15T13:06:10;12.50;;;5.93;;
64293;SDS011;50636;45.596;5.258;2023-02-15T13:08:49;7.93;;;4.78;;
64293;SDS011;50636;45.596;5.258;2023-02-15T13:11:34;5.07;;;4.55;;
64293;SDS011;50636;45.596;5.258;2023-02-15T13:14:42;8.70;;;4.88;;
64293;SDS011;50636;45.596;5.258;2023-02-15T13:17:30;14.02;;;7.18;;
64293;SDS011;50636;45.596;5.258;2023-02-15T13:20:19;10.85;;;5.32;;
64293;SDS011;50636;45.596;5.258;2023-02-15T13:23:12;8.60;;;5.80;;
64293;SDS011;50636;45.596;5.258;2023-02-15T13:26:04;16.05;;;9.68;;
64293;SDS011;50636;45.596;5.258;2023-02-15T13:28:58;6.13;;;4.10;;
64293;SDS011;50636;45.596;5.258;2023-02-15T13:31:34;11.20;;;6.18;;
64293;SDS011;50636;45.596;5.258;2023-02-15T13:34:12;23.30;;;12.02;;
64293;SDS011;50636;45.596;5.258;2023-02-15T13:37:10;13.20;;;5.85;;
64293;SDS011;50636;45.596;5.258;2023-02-15T13:39:48;7.97;;;4.28;;
64293;SDS011;50636;45.596;5.258;2023-02-15T13:46:00;5.53;;;3.95;;
64293;SDS011;50636;45.596;5.258;2023-02-15T14:01:26;35.58;;;31.70;;
64293;SDS011;50636;45.596;5.258;2023-02-15T14:07:38;6.35;;;4.32;;
64293;SDS011;50636;45.596;5.258;2023-02-15T14:19:04;10.07;;;4.93;;
64293;SDS011;50636;45.596;5.258;2023-02-15T14:21:45;9.93;;;3.72;;
64293;SDS011;50636;45.596;5.258;2023-02-15T14:24:47;15.27;;;6.22;;
64293;SDS011;50636;45.596;5.258;2023-02-15T14:33:33;6.95;;;3.40;;
64293;SDS011;50636;45.596;5.258;2023-02-15T14:36:27;6.35;;;3.25;;
64293;SDS011;50636;45.596;5.258;2023-02-15T14:39:13;14.23;;;10.30;;
64293;SDS011;50636;45.596;5.258;2023-02-15T14:42:05;10.02;;;8.95;;
64293;SDS011;50636;45.596;5.258;2023-02-15T14:45:04;7.63;;;3.90;;
64293;SDS011;50636;45.596;5.258;2023-02-15T14:47:36;7.32;;;3.42;;
64293;SDS011;50636;45.596;5.258;2023-02-15T14:50:50;14.50;;;4.65;;
64293;SDS011;50636;45.596;5.258;2023-02-15T14:56:05;4.05;;;2.63;;
64293;SDS011;50636;45.596;5.258;2023-02-15T15:01:33;15.50;;;4.97;;
64293;SDS011;50636;45.596;5.258;2023-02-15T15:07:02;11.85;;;4.70;;
64293;SDS011;50636;45.596;5.258;2023-02-15T15:16:26;9.43;;;3.63;;
64293;SDS011;50636;45.596;5.258;2023-02-15T15:22:20;6.50;;;2.92;;
64293;SDS011;50636;45.596;5.258;2023-02-15T15:24:54;7.10;;;3.30;;
64293;SDS011;50636;45.596;5.258;2023-02-15T15:38:22;10.70;;;3.15;;
64293;SDS011;50636;45.596;5.258;2023-02-15T15:47:05;11.18;;;4.32;;
64293;SDS011;50636;45.596;5.258;2023-02-15T15:50:30;11.65;;;6.55;;
64293;SDS011;50636;45.596;5.258;2023-02-15T15:53:06;4.47;;;2.90;;
64293;SDS011;50636;45.596;5.258;2023-02-15T15:59:11;5.40;;;3.00;;
64293;SDS011;50636;45.596;5.258;2023-02-15T16:02:11;5.38;;;2.72;;
64293;SDS011;50636;45.596;5.258;2023-02-15T16:05:16;7.78;;;2.42;;
64293;SDS011;50636;45.596;5.258;2023-02-15T16:07:58;4.40;;;3.28;;
64293;SDS011;50636;45.596;5.258;2023-02-15T16:10:36;5.00;;;2.70;;
64293;SDS011;50636;45.596;5.258;2023-02-15T16:13:12;7.20;;;3.00;;
64293;SDS011;50636;45.596;5.258;2023-02-15T16:15:55;6.10;;;3.03;;
64293;SDS011;50636;45.596;5.258;2023-02-15T16:18:26;3.95;;;2.60;;
64293;SDS011;50636;45.596;5.258;2023-02-15T16:21:02;5.13;;;2.60;;
64293;SDS011;50636;45.596;5.258;2023-02-15T16:26:06;6.53;;;2.72;;
64293;SDS011;50636;45.596;5.258;2023-02-15T16:28:50;7.28;;;2.95;;
64293;SDS011;50636;45.596;5.258;2023-02-15T16:31:20;9.60;;;2.47;;
64293;SDS011;50636;45.596;5.258;2023-02-15T16:33:51;9.68;;;3.17;;
64293;SDS011;50636;45.596;5.258;2023-02-15T16:36:26;10.05;;;2.90;;
64293;SDS011;50636;45.596;5.258;2023-02-15T16:39:29;4.35;;;3.17;;
64293;SDS011;50636;45.596;5.258;2023-02-15T16:44:55;5.47;;;2.83;;
64293;SDS011;50636;45.596;5.258;2023-02-15T16:47:55;4.65;;;3.00;;
64293;SDS011;50636;45.596;5.258;2023-02-15T16:50:54;6.60;;;3.50;;
64293;SDS011;50636;45.596;5.258;2023-02-15T16:53:30;7.43;;;3.30;;
64293;SDS011;50636;45.596;5.258;2023-02-15T16:58:55;6.30;;;3.08;;
64293;SDS011;50636;45.596;5.258;2023-02-15T17:01:39;9.00;;;3.30;;
64293;SDS011;50636;45.596;5.258;2023-02-15T17:04:34;12.50;;;4.65;;
64293;SDS011;50636;45.596;5.258;2023-02-15T17:07:16;8.38;;;5.47;;
64293;SDS011;50636;45.596;5.258;2023-02-15T17:10:39;10.73;;;6.85;;
64293;SDS011;50636;45.596;5.258;2023-02-15T17:13:12;10.93;;;4.28;;
64293;SDS011;50636;45.596;5.258;2023-02-15T17:15:42;12.90;;;6.13;;
64293;SDS011;50636;45.596;5.258;2023-02-15T17:18:48;8.10;;;3.95;;
64293;SDS011;50636;45.596;5.258;2023-02-15T17:21:30;9.32;;;3.50;;
64293;SDS011;50636;45.596;5.258;2023-02-15T17:24:42;12.40;;;4.18;;
64293;SDS011;50636;45.596;5.258;2023-02-15T17:27:28;10.70;;;3.95;;
64293;SDS011;50636;45.596;5.258;2023-02-15T17:42:09;14.10;;;5.78;;
64293;SDS011;50636;45.596;5.258;2023-02-15T17:44:41;14.88;;;6.97;;
64293;SDS011;50636;45.596;5.258;2023-02-15T17:47:21;16.92;;;5.70;;
64293;SDS011;50636;45.596;5.258;2023-02-15T17:49:57;7.82;;;4.43;;
64293;SDS011;50636;45.596;5.258;2023-02-15T17:52:50;10.88;;;5.10;;
64293;SDS011;50636;45.596;5.258;2023-02-15T17:55:21;9.30;;;5.60;;
64293;SDS011;50636;45.596;5.258;2023-02-15T17:58:12;11.55;;;5.03;;
64293;SDS011;50636;45.596;5.258;2023-02-15T18:00:43;16.83;;;5.75;;
64293;SDS011;50636;45.596;5.258;2023-02-15T18:03:51;14.82;;;6.47;;
64293;SDS011;50636;45.596;5.258;2023-02-15T18:06:38;11.35;;;5.53;;
64293;SDS011;50636;45.596;5.258;2023-02-15T18:09:25;12.48;;;5.53;;
64293;SDS011;50636;45.596;5.258;2023-02-15T18:12:21;7.70;;;4.75;;
64293;SDS011;50636;45.596;5.258;2023-02-15T18:14:51;12.38;;;5.25;;
64293;SDS011;50636;45.596;5.258;2023-02-15T18:17:24;12.45;;;5.40;;
64293;SDS011;50636;45.596;5.258;2023-02-15T18:20:21;11.55;;;6.18;;
64293;SDS011;50636;45.596;5.258;2023-02-15T18:22:53;12.35;;;6.63;;
64293;SDS011;50636;45.596;5.258;2023-02-15T18:25:20;18.05;;;6.03;;
64293;SDS011;50636;45.596;5.258;2023-02-15T18:27:50;8.52;;;5.90;;
64293;SDS011;50636;45.596;5.258;2023-02-15T18:30:19;10.77;;;6.07;;
64293;SDS011;50636;45.596;5.258;2023-02-15T18:32:49;8.68;;;6.30;;
64293;SDS011;50636;45.596;5.258;2023-02-15T18:35:19;7.20;;;5.20;;
64293;SDS011;50636;45.596;5.258;2023-02-15T18:37:48;10.88;;;8.10;;
64293;SDS011;50636;45.596;5.258;2023-02-15T18:40:19;10.77;;;5.32;;
64293;SDS011;50636;45.596;5.258;2023-02-15T18:42:57;11.05;;;6.93;;
64293;SDS011;50636;45.596;5.258;2023-02-15T18:45:30;10.32;;;6.07;;
64293;SDS011;50636;45.596;5.258;2023-02-15T18:47:58;11.32;;;6.68;;
64293;SDS011;50636;45.596;5.258;2023-02-15T18:50:36;19.48;;;10.82;;
64293;SDS011;50636;45.596;5.258;2023-02-15T18:53:14;9.73;;;7.95;;
64293;SDS011;50636;45.596;5.258;2023-02-15T18:56:21;12.15;;;6.65;;
64293;SDS011;50636;45.596;5.258;2023-02-15T18:58:49;11.25;;;7.55;;
64293;SDS011;50636;45.596;5.258;2023-02-15T19:01:17;9.68;;;6.55;;
64293;SDS011;50636;45.596;5.258;2023-02-15T19:03:47;14.68;;;6.93;;
64293;SDS011;50636;45.596;5.258;2023-02-15T19:06:16;17.50;;;8.32;;
64293;SDS011;50636;45.596;5.258;2023-02-15T19:08:47;18.27;;;10.07;;
64293;SDS011;50636;45.596;5.258;2023-02-15T19:11:18;13.68;;;8.30;;
64293;SDS011;50636;45.596;5.258;2023-02-15T19:13:48;14.15;;;9.70;;
64293;SDS011;50636;45.596;5.258;2023-02-15T19:16:26;16.45;;;9.25;;
64293;SDS011;50636;45.596;5.258;2023-02-15T19:19:02;13.90;;;9.13;;
64293;SDS011;50636;45.596;5.258;2023-02-15T19:21:30;25.92;;;9.90;;
64293;SDS011;50636;45.596;5.258;2023-02-15T19:24:02;18.30;;;10.32;;
64293;SDS011;50636;45.596;5.258;2023-02-15T19:26:32;13.98;;;8.60;;
64293;SDS011;50636;45.596;5.258;2023-02-15T19:29:09;12.50;;;7.53;;
64293;SDS011;50636;45.596;5.258;2023-02-15T19:31:38;18.00;;;9.57;;
64293;SDS011;50636;45.596;5.258;2023-02-15T19:34:10;17.60;;;8.38;;
64293;SDS011;50636;45.596;5.258;2023-02-15T19:36:45;23.63;;;9.35;;
64293;SDS011;50636;45.596;5.258;2023-02-15T19:39:32;13.68;;;9.60;;
64293;SDS011;50636;45.596;5.258;2023-02-15T19:42:05;21.90;;;9.85;;
64293;SDS011;50636;45.596;5.258;2023-02-15T19:44:31;13.63;;;9.05;;
64293;SDS011;50636;45.596;5.258;2023-02-15T19:46:58;16.70;;;10.70;;
64293;SDS011;50636;45.596;5.258;2023-02-15T19:49:25;17.30;;;10.40;;